Time;durP1;ratioP1;P1;durP2;ratioP2;P2;SDS_P1;SDS_P2;PMS_P1;PMS_P2;Temp;Humidity;BMP_temperature;BMP_pressure;BME280_temperature;BME280_humidity;BME280_pressure;Samples;Min_cycle;Max_cycle;Signal;HPM_P1;HPM_P2
2023/05/22 00:01:43;;;;;;;32.58;25.17;;;19.80;99.90;;;;;;5061686;28;20391;-46
2023/05/22 00:04:12;;;;;;;38.88;25.90;;;19.80;99.90;;;;;;5067415;28;20398;-50
2023/05/22 00:06:41;;;;;;;29.27;25.38;;;19.80;99.90;;;;;;5070504;28;20035;-47
2023/05/22 00:09:07;;;;;;;28.48;22.90;;;19.80;99.90;;;;;;5060871;28;20116;-47
2023/05/22 00:11:34;;;;;;;34.15;24.90;;;19.80;99.90;;;;;;5056533;28;20115;-47
2023/05/22 00:14:01;;;;;;;26.88;22.95;;;19.80;99.90;;;;;;5071668;28;20078;-47
2023/05/22 00:16:26;;;;;;;26.17;23.33;;;19.80;99.90;;;;;;5068434;28;20100;-49
2023/05/22 00:18:53;;;;;;;29.17;24.45;;;19.60;99.90;;;;;;5073833;28;20107;-48
2023/05/22 00:21:19;;;;;;;32.08;24.05;;;19.70;99.90;;;;;;5073456;28;20024;-48
2023/05/22 00:23:44;;;;;;;32.88;23.00;;;19.70;99.90;;;;;;5071238;28;20024;-47
2023/05/22 00:26:14;;;;;;;32.38;23.15;;;19.70;99.90;;;;;;5054850;28;20025;-47
2023/05/22 00:28:40;;;;;;;35.92;24.77;;;19.70;99.90;;;;;;5052073;28;20129;-49
2023/05/22 00:31:06;;;;;;;30.63;24.45;;;19.60;99.90;;;;;;5061768;28;20111;-48
2023/05/22 00:33:33;;;;;;;31.48;23.38;;;19.60;99.90;;;;;;5060651;28;20115;-50
2023/05/22 00:35:58;;;;;;;27.08;23.05;;;19.60;99.90;;;;;;5073501;28;20120;-51
2023/05/22 00:38:31;;;;;;;29.05;24.73;;;19.60;99.90;;;;;;5064930;28;20519;-48
2023/05/22 00:40:57;;;;;;;29.42;23.85;;;19.60;99.90;;;;;;5052151;28;20029;-49
2023/05/22 00:43:22;;;;;;;31.13;24.83;;;19.50;99.90;;;;;;5053480;28;20083;-47
2023/05/22 00:45:48;;;;;;;31.42;23.45;;;19.50;99.90;;;;;;5053343;28;20025;-50
2023/05/22 00:48:14;;;;;;;27.88;23.45;;;19.50;99.90;;;;;;5053167;28;20025;-51
2023/05/22 00:50:41;;;;;;;29.17;24.15;;;19.60;99.90;;;;;;5062197;28;20032;-47
2023/05/22 00:53:07;;;;;;;24.98;21.05;;;19.60;99.90;;;;;;5071889;28;20123;-48
2023/05/22 00:55:33;;;;;;;21.48;19.05;;;19.70;99.90;;;;;;5073252;28;20028;-51
2023/05/22 00:58:01;;;;;;;27.02;20.33;;;19.70;99.90;;;;;;5071839;28;20026;-50
2023/05/22 01:00:27;;;;;;;16.00;12.25;;;19.70;99.90;;;;;;5071726;28;20052;-49
2023/05/22 01:02:52;;;;;;;13.45;11.23;;;19.70;99.40;;;;;;5055099;28;20487;-49
2023/05/22 01:05:18;;;;;;;15.23;10.25;;;19.70;98.70;;;;;;5054193;28;20387;-48
2023/05/22 01:07:45;;;;;;;10.48;8.73;;;19.80;98.10;;;;;;5069335;28;20562;-47
2023/05/22 01:10:10;;;;;;;8.30;7.13;;;19.80;97.50;;;;;;5072620;28;20031;-48
2023/05/22 01:12:59;;;;;;;11.35;7.18;;;19.80;97.20;;;;;;5064933;28;20028;-50
2023/05/22 01:15:42;;;;;;;9.38;6.60;;;19.80;96.80;;;;;;5055476;28;20025;-48
2023/05/22 01:18:28;;;;;;;8.18;6.72;;;19.80;96.40;;;;;;5051208;28;20035;-47
2023/05/22 01:21:03;;;;;;;7.53;5.85;;;19.80;96.00;;;;;;5057160;28;20028;-49
2023/05/22 01:24:05;;;;;;;9.73;5.63;;;19.80;96.20;;;;;;5066068;28;20041;-47
2023/05/22 01:26:42;;;;;;;9.13;6.72;;;19.80;95.90;;;;;;5071714;28;20488;-47
2023/05/22 01:29:27;;;;;;;8.27;5.80;;;19.80;96.30;;;;;;5065426;28;20021;-47
2023/05/22 01:31:56;;;;;;;8.48;6.18;;;19.80;96.00;;;;;;5052513;28;20039;-50
2023/05/22 01:34:22;;;;;;;8.45;5.97;;;19.70;96.10;;;;;;5052351;28;20457;-48
2023/05/22 01:36:52;;;;;;;8.50;6.18;;;19.70;96.00;;;;;;5052409;28;20486;-47
2023/05/22 01:39:18;;;;;;;7.13;5.63;;;19.70;96.20;;;;;;5052254;28;20025;-48
2023/05/22 01:41:44;;;;;;;11.52;7.22;;;19.60;96.50;;;;;;5062684;28;20094;-48
2023/05/22 01:44:10;;;;;;;13.55;6.90;;;19.60;96.70;;;;;;5070520;28;20021;-47
2023/05/22 01:46:36;;;;;;;9.25;7.57;;;19.50;96.90;;;;;;5072203;28;20436;-47
2023/05/22 01:49:01;;;;;;;13.13;7.68;;;19.50;97.10;;;;;;5071900;28;20530;-49
2023/05/22 01:51:40;;;;;;;11.05;7.63;;;19.50;97.30;;;;;;5072106;28;20032;-48
2023/05/22 01:54:31;;;;;;;11.75;8.30;;;19.40;97.40;;;;;;5066671;28;20055;-47
2023/05/22 01:57:15;;;;;;;15.18;9.23;;;19.40;97.00;;;;;;5061279;28;20032;-48
2023/05/22 01:59:44;;;;;;;15.32;8.95;;;19.30;97.70;;;;;;5058545;28;20028;-47
2023/05/22 02:02:13;;;;;;;9.93;8.52;;;19.30;97.80;;;;;;5055534;28;20091;-49
2023/05/22 02:04:41;;;;;;;14.63;10.45;;;19.30;98.10;;;;;;5066687;28;20435;-48
2023/05/22 02:07:10;;;;;;;15.45;11.48;;;19.30;98.40;;;;;;5060178;28;20398;-47
2023/05/22 02:09:37;;;;;;;14.68;13.07;;;19.20;98.80;;;;;;5051685;28;20540;-50
2023/05/22 02:12:03;;;;;;;;;;;19.20;99.20;;;;;;5066270;28;20112;-49
2023/05/22 02:14:30;;;;;;;24.10;19.58;;;19.20;99.00;;;;;;5058563;28;19948;-48
2023/05/22 02:16:56;;;;;;;35.25;22.50;;;19.10;99.90;;;;;;5067094;28;20032;-49
2023/05/22 02:19:23;;;;;;;27.27;21.88;;;19.10;99.90;;;;;;5069455;28;20056;-49
2023/05/22 02:21:49;;;;;;;29.50;23.35;;;19.00;99.90;;;;;;5070033;28;20055;-47
2023/05/22 02:24:14;;;;;;;29.65;23.85;;;19.00;99.90;;;;;;5068344;28;20075;-47
2023/05/22 02:26:41;;;;;;;31.55;23.75;;;19.00;99.90;;;;;;5060317;28;20069;-47
2023/05/22 02:29:07;;;;;;;31.55;22.88;;;19.00;99.90;;;;;;5070110;28;20510;-49
2023/05/22 02:31:33;;;;;;;27.85;24.77;;;18.90;99.90;;;;;;5059141;28;20025;-47
2023/05/22 02:33:58;;;;;;;27.23;22.95;;;18.90;99.90;;;;;;5051525;28;20509;-47
2023/05/22 02:36:25;;;;;;;31.25;24.17;;;18.80;99.90;;;;;;5051547;28;20021;-48
2023/05/22 02:38:51;;;;;;;32.33;23.25;;;18.80;99.90;;;;;;5059421;28;20033;-50
2023/05/22 02:41:17;;;;;;;28.43;23.70;;;18.80;99.90;;;;;;5067075;28;20028;-47
2023/05/22 02:43:43;;;;;;;36.72;23.35;;;18.80;99.90;;;;;;5064985;28;20033;-47
2023/05/22 02:46:08;;;;;;;29.42;23.25;;;18.90;99.90;;;;;;5060394;28;20545;-48
2023/05/22 02:48:34;;;;;;;34.58;24.02;;;18.80;99.90;;;;;;5069510;28;20101;-47
2023/05/22 02:51:00;;;;;;;29.35;23.98;;;18.60;99.90;;;;;;5061751;28;20036;-49
2023/05/22 02:53:25;;;;;;;32.22;24.05;;;18.50;99.90;;;;;;5063460;28;20028;-47
2023/05/22 02:55:52;;;;;;;31.15;22.90;;;18.50;99.90;;;;;;5070038;28;20561;-47
2023/05/22 02:58:18;;;;;;;34.57;24.83;;;18.50;99.90;;;;;;5075207;28;20028;-47
2023/05/22 03:00:44;;;;;;;33.33;24.92;;;18.40;99.90;;;;;;5068937;28;20028;-47
2023/05/22 03:03:10;;;;;;;36.40;26.92;;;18.30;99.90;;;;;;5073266;28;20032;-47
2023/05/22 03:05:37;;;;;;;40.10;27.08;;;18.30;99.90;;;;;;5069995;28;20024;-47
2023/05/22 03:08:03;;;;;;;39.70;28.23;;;18.20;99.90;;;;;;5075155;28;20024;-47
2023/05/22 03:10:28;;;;;;;33.60;26.92;;;18.20;99.90;;;;;;5059887;28;20471;-47
2023/05/22 03:12:54;;;;;;;38.58;28.73;;;18.20;99.90;;;;;;5075197;28;20033;-48
2023/05/22 03:15:20;;;;;;;34.65;28.40;;;18.20;99.90;;;;;;5070042;28;20029;-49
2023/05/22 03:17:46;;;;;;;36.58;27.15;;;18.10;99.90;;;;;;5066126;28;20145;-52
2023/05/22 03:20:15;;;;;;;33.67;28.13;;;18.10;99.90;;;;;;5066279;28;20100;-47
2023/05/22 03:22:44;;;;;;;35.53;28.25;;;18.10;99.90;;;;;;5074823;28;20137;-51
2023/05/22 03:25:10;;;;;;;38.72;28.25;;;18.00;99.90;;;;;;5068774;28;20398;-50
2023/05/22 03:27:39;;;;;;;30.33;26.73;;;18.00;99.90;;;;;;5074799;28;20043;-47
2023/05/22 03:30:05;;;;;;;33.17;26.23;;;18.10;99.90;;;;;;5072638;28;20031;-48
2023/05/22 03:32:31;;;;;;;33.03;26.55;;;18.00;99.90;;;;;;5054700;28;20028;-48
2023/05/22 03:34:57;;;;;;;33.60;25.75;;;18.00;99.90;;;;;;5070133;28;20028;-49
2023/05/22 03:37:23;;;;;;;33.38;26.90;;;18.00;99.90;;;;;;5074510;28;20262;-51
2023/05/22 03:39:49;;;;;;;38.33;27.65;;;18.10;99.90;;;;;;5062003;28;20403;-47
2023/05/22 03:42:15;;;;;;;32.28;26.05;;;18.10;99.90;;;;;;5054649;28;20049;-49
2023/05/22 03:44:40;;;;;;;32.72;26.33;;;18.10;99.90;;;;;;5066167;28;20027;-47
2023/05/22 03:47:06;;;;;;;35.25;26.73;;;18.10;99.90;;;;;;5057767;28;20025;-47
2023/05/22 03:49:32;;;;;;;36.78;27.10;;;18.10;99.90;;;;;;5068294;28;20020;-48
2023/05/22 03:51:57;;;;;;;29.58;24.88;;;18.10;99.90;;;;;;5062325;28;20025;-49
2023/05/22 03:54:23;;;;;;;32.65;27.08;;;18.00;99.90;;;;;;5061922;28;20027;-47
2023/05/22 03:56:49;;;;;;;31.23;25.60;;;18.00;99.90;;;;;;5053987;28;20037;-47
2023/05/22 03:59:15;;;;;;;33.93;26.33;;;18.00;99.90;;;;;;5054090;28;20055;-47
2023/05/22 04:01:41;;;;;;;34.35;26.10;;;17.90;99.90;;;;;;5053782;28;20037;-47
2023/05/22 04:04:08;;;;;;;28.83;25.02;;;18.00;99.90;;;;;;5054385;28;20025;-48
2023/05/22 04:06:41;;;;;;;;;;;17.90;99.90;;;;;;5054194;28;20100;-47
2023/05/22 04:09:10;;;;;;;33.10;25.45;;;17.80;99.90;;;;;;5054004;28;19935;-49
2023/05/22 04:11:36;;;;;;;33.22;25.50;;;17.90;99.90;;;;;;5054072;28;20032;-50
2023/05/22 04:14:05;;;;;;;32.85;24.67;;;17.80;99.90;;;;;;5054022;28;20025;-48
2023/05/22 04:16:32;;;;;;;31.20;25.63;;;17.70;99.90;;;;;;5054108;28;20033;-52
2023/05/22 04:18:58;;;;;;;32.72;26.02;;;17.80;99.90;;;;;;5053649;28;20028;-47
2023/05/22 04:21:23;;;;;;;31.20;25.10;;;17.80;99.90;;;;;;5052692;28;20471;-47
2023/05/22 04:23:49;;;;;;;32.95;25.40;;;17.60;99.90;;;;;;5053853;28;20377;-47
2023/05/22 04:26:16;;;;;;;30.63;24.50;;;17.60;99.90;;;;;;5053965;28;20017;-52
2023/05/22 04:28:46;;;;;;;34.42;25.58;;;17.60;99.90;;;;;;5053356;28;20027;-50
2023/05/22 04:31:12;;;;;;;35.30;24.73;;;17.60;99.90;;;;;;5064937;28;20036;-49
2023/05/22 04:33:38;;;;;;;36.60;24.98;;;17.60;99.90;;;;;;5073167;28;20024;-49
2023/05/22 04:36:05;;;;;;;38.63;26.07;;;17.60;99.90;;;;;;5089208;28;20048;-48
2023/05/22 04:38:35;;;;;;;37.70;26.30;;;17.70;99.90;;;;;;5058805;28;20487;-47
2023/05/22 04:41:02;;;;;;;38.45;27.27;;;17.70;99.90;;;;;;5053330;28;20460;-47
2023/05/22 04:43:28;;;;;;;31.67;24.67;;;17.70;99.90;;;;;;5053406;28;20024;-49
2023/05/22 04:45:55;;;;;;;35.33;25.97;;;17.80;99.90;;;;;;5053344;28;20017;-49
2023/05/22 04:48:21;;;;;;;32.80;24.13;;;17.80;99.90;;;;;;5053143;28;20018;-50
2023/05/22 04:50:48;;;;;;;32.17;23.67;;;17.80;99.90;;;;;;5063621;28;20029;-48
2023/05/22 04:53:14;;;;;;;26.92;22.38;;;17.90;99.90;;;;;;5071995;28;20154;-47
2023/05/22 04:55:40;;;;;;;28.90;22.58;;;17.90;99.90;;;;;;5071869;28;20039;-50
2023/05/22 04:58:06;;;;;;;30.05;25.02;;;18.00;99.90;;;;;;5072934;28;20043;-48
2023/05/22 05:00:32;;;;;;;31.77;24.63;;;18.00;99.90;;;;;;5072983;28;20040;-47
2023/05/22 05:02:59;;;;;;;32.35;24.17;;;18.00;99.90;;;;;;5073051;28;20024;-47
2023/05/22 05:05:24;;;;;;;;;;;18.00;99.90;;;;;;5073521;28;20509;-49
2023/05/22 05:07:50;;;;;;;32.42;23.38;;;18.00;99.90;;;;;;5072793;28;19905;-48
2023/05/22 05:10:16;;;;;;;28.50;22.88;;;17.90;99.90;;;;;;5072828;28;20032;-47
2023/05/22 05:12:42;;;;;;;29.08;22.83;;;17.90;99.90;;;;;;5072968;28;20544;-49
2023/05/22 05:15:08;;;;;;;30.55;21.90;;;17.90;99.90;;;;;;5072803;28;20029;-49
2023/05/22 05:17:34;;;;;;;29.35;22.50;;;18.00;99.90;;;;;;5071706;28;20486;-47
2023/05/22 05:20:00;;;;;;;29.85;23.33;;;18.00;99.90;;;;;;5072682;28;20027;-49
2023/05/22 05:22:26;;;;;;;29.85;22.08;;;18.00;99.90;;;;;;5072747;28;20104;-47
2023/05/22 05:24:51;;;;;;;29.38;23.30;;;18.20;99.90;;;;;;5072567;28;20103;-47
2023/05/22 05:27:17;;;;;;;27.58;21.55;;;18.20;99.90;;;;;;5072596;28;20032;-48
2023/05/22 05:29:43;;;;;;;30.50;22.30;;;18.30;99.90;;;;;;5070959;28;20029;-50
2023/05/22 05:32:11;;;;;;;29.30;23.08;;;18.40;99.90;;;;;;5071807;28;20060;-48
2023/05/22 05:34:37;;;;;;;34.25;22.98;;;18.40;99.90;;;;;;5072545;28;20035;-49
2023/05/22 05:37:04;;;;;;;34.72;24.33;;;18.50;99.90;;;;;;5072241;28;20032;-50
2023/05/22 05:39:30;;;;;;;;;;;18.50;99.90;;;;;;5072828;28;20074;-50
2023/05/22 05:41:55;;;;;;;30.05;20.83;;;18.50;99.90;;;;;;5072218;28;19908;-47
2023/05/22 05:44:21;;;;;;;25.70;21.13;;;18.50;99.90;;;;;;5072267;28;20100;-47
2023/05/22 05:46:47;;;;;;;29.38;21.27;;;18.60;99.90;;;;;;5070885;28;20069;-47
2023/05/22 05:49:12;;;;;;;29.77;22.02;;;18.70;99.90;;;;;;5072012;28;20104;-49
2023/05/22 05:51:38;;;;;;;31.00;21.75;;;18.80;99.90;;;;;;5073777;28;20028;-50
2023/05/22 05:54:04;;;;;;;24.50;21.88;;;18.90;99.90;;;;;;5072057;28;20070;-50
2023/05/22 05:56:30;;;;;;;26.63;20.27;;;19.00;99.90;;;;;;5072148;28;20021;-47
2023/05/22 05:58:56;;;;;;;26.83;19.87;;;19.10;99.90;;;;;;5064869;28;20033;-46
2023/05/22 06:01:24;;;;;;;32.78;20.08;;;19.20;99.90;;;;;;5064424;28;20028;-44
2023/05/22 06:03:50;;;;;;;24.88;19.48;;;19.20;99.90;;;;;;5065604;28;20467;-45
2023/05/22 06:06:16;;;;;;;23.10;18.43;;;19.30;99.90;;;;;;5053744;28;20118;-46
2023/05/22 06:08:42;;;;;;;21.38;19.08;;;19.40;99.90;;;;;;5058792;28;20104;-50
2023/05/22 06:11:08;;;;;;;27.75;19.42;;;19.50;99.90;;;;;;5054564;28;20423;-50
2023/05/22 06:13:34;;;;;;;24.15;19.70;;;19.50;99.90;;;;;;5059016;28;20028;-44
2023/05/22 06:16:00;;;;;;;21.25;17.67;;;19.60;99.90;;;;;;5055772;28;20551;-44
2023/05/22 06:18:26;;;;;;;22.45;17.23;;;19.60;99.90;;;;;;5057706;28;20520;-47
2023/05/22 06:20:52;;;;;;;21.63;19.25;;;19.70;99.90;;;;;;5056746;28;20440;-49
2023/05/22 06:23:18;;;;;;;26.20;17.60;;;19.70;99.90;;;;;;5056841;28;20476;-43
2023/05/22 06:25:44;;;;;;;19.00;16.80;;;19.60;99.90;;;;;;5057847;28;20059;-44
2023/05/22 06:28:10;;;;;;;20.83;16.40;;;19.60;99.90;;;;;;5056326;28;20463;-43
2023/05/22 06:30:36;;;;;;;21.67;16.85;;;19.60;99.90;;;;;;5062858;28;20028;-43
2023/05/22 06:33:02;;;;;;;19.10;15.80;;;19.70;99.90;;;;;;5065269;28;20086;-44
2023/05/22 06:35:29;;;;;;;18.92;14.00;;;19.80;99.90;;;;;;5060125;28;20017;-43
2023/05/22 06:37:56;;;;;;;21.05;14.90;;;19.80;99.90;;;;;;5053889;28;20029;-44
2023/05/22 06:40:21;;;;;;;19.38;15.40;;;19.90;99.90;;;;;;5060246;28;20021;-49
2023/05/22 06:42:47;;;;;;;18.25;14.68;;;19.90;99.90;;;;;;5053802;28;20410;-44
2023/05/22 06:45:13;;;;;;;23.70;14.32;;;19.90;99.90;;;;;;5069767;28;20033;-44
2023/05/22 06:47:39;;;;;;;16.65;14.50;;;19.90;99.90;;;;;;5067970;28;20078;-44
2023/05/22 06:50:05;;;;;;;26.40;14.52;;;19.90;99.90;;;;;;5060362;28;20021;-45
2023/05/22 06:52:32;;;;;;;18.08;15.77;;;19.90;99.90;;;;;;5053857;28;20035;-45
2023/05/22 06:55:03;;;;;;;18.70;14.48;;;20.00;99.90;;;;;;5060182;28;20068;-43
2023/05/22 06:57:32;;;;;;;17.42;14.60;;;20.00;99.90;;;;;;5053637;28;20029;-44
2023/05/22 06:59:59;;;;;;;19.67;14.73;;;20.00;99.90;;;;;;5061451;28;20493;-43
2023/05/22 07:02:25;;;;;;;20.50;14.97;;;19.90;99.90;;;;;;5068385;28;20017;-43
2023/05/22 07:04:52;;;;;;;17.15;14.70;;;19.90;99.90;;;;;;5060337;28;20028;-43
2023/05/22 07:07:18;;;;;;;20.27;15.77;;;19.80;99.90;;;;;;5052406;28;20059;-44
2023/05/22 07:09:43;;;;;;;20.77;16.98;;;19.90;99.90;;;;;;5061117;28;20064;-46
2023/05/22 07:12:09;;;;;;;21.02;15.93;;;19.80;99.90;;;;;;5051584;28;20025;-50
2023/05/22 07:14:35;;;;;;;18.70;15.70;;;19.80;99.90;;;;;;5062193;28;20025;-48
2023/05/22 07:17:01;;;;;;;17.92;15.88;;;19.80;99.90;;;;;;5051181;28;20052;-51
2023/05/22 07:19:26;;;;;;;17.85;15.30;;;19.90;99.90;;;;;;5062283;28;20025;-52
2023/05/22 07:21:52;;;;;;;23.38;15.75;;;20.00;99.90;;;;;;5049849;28;20017;-44
2023/05/22 07:24:18;;;;;;;16.08;14.18;;;20.10;99.90;;;;;;5062365;28;20529;-44
2023/05/22 07:26:47;;;;;;;16.38;13.57;;;20.20;99.90;;;;;;5051149;28;20112;-48
2023/05/22 07:29:13;;;;;;;15.70;11.90;;;20.20;99.90;;;;;;5057167;28;20056;-48
2023/05/22 07:31:38;;;;;;;12.88;10.93;;;20.30;98.40;;;;;;5071152;28;20071;-48
2023/05/22 07:34:04;;;;;;;13.93;10.77;;;20.30;98.40;;;;;;5064397;28;20020;-53
2023/05/22 07:36:33;;;;;;;13.70;12.23;;;20.40;98.30;;;;;;5051031;28;20027;-51
2023/05/22 07:38:59;;;;;;;15.18;12.48;;;20.50;99.10;;;;;;5061391;28;20615;-50
2023/05/22 07:41:28;;;;;;;18.55;11.13;;;20.60;99.30;;;;;;5052931;28;20044;-47
2023/05/22 07:43:54;;;;;;;14.32;10.73;;;20.70;98.60;;;;;;5064594;28;20113;-50
2023/05/22 07:46:20;;;;;;;16.25;9.70;;;20.80;98.50;;;;;;5055826;28;20060;-52
2023/05/22 07:48:45;;;;;;;16.98;11.32;;;20.90;96.50;;;;;;5063280;28;20360;-50
2023/05/22 07:51:12;;;;;;;15.50;11.70;;;20.90;96.50;;;;;;5056864;28;20031;-47
2023/05/22 07:53:38;;;;;;;16.23;10.40;;;21.00;96.50;;;;;;5062253;28;20028;-48
2023/05/22 07:56:04;;;;;;;13.07;10.48;;;21.10;96.30;;;;;;5058143;28;20060;-52
2023/05/22 07:58:30;;;;;;;11.93;10.57;;;21.10;95.10;;;;;;5059178;28;20062;-53
2023/05/22 08:00:56;;;;;;;13.00;10.90;;;21.20;95.00;;;;;;5070099;28;20019;-51
2023/05/22 08:03:21;;;;;;;13.40;9.40;;;21.20;95.00;;;;;;5068118;28;20032;-49
2023/05/22 08:05:47;;;;;;;12.27;10.35;;;21.30;94.40;;;;;;5060184;28;20021;-50
2023/05/22 08:08:13;;;;;;;12.82;10.90;;;21.30;93.80;;;;;;5058520;28;20104;-52
2023/05/22 08:10:38;;;;;;;14.63;9.98;;;21.40;93.80;;;;;;5061137;28;20025;-51
2023/05/22 08:13:07;;;;;;;17.65;11.10;;;21.40;92.90;;;;;;5057536;28;20543;-50
2023/05/22 08:15:33;;;;;;;12.75;10.27;;;21.40;93.50;;;;;;5060539;28;20032;-52
2023/05/22 08:18:02;;;;;;;12.38;10.82;;;21.60;93.20;;;;;;5056230;28;20482;-54
2023/05/22 08:20:28;;;;;;;13.43;10.25;;;21.60;93.50;;;;;;5060930;28;20028;-54
2023/05/22 08:22:53;;;;;;;17.20;10.90;;;21.70;92.30;;;;;;5056531;28;20021;-56
2023/05/22 08:25:19;;;;;;;16.70;11.45;;;21.70;92.00;;;;;;5062697;28;20491;-56
2023/05/22 08:27:45;;;;;;;19.87;11.47;;;21.80;92.80;;;;;;5056745;28;20059;-56
2023/05/22 08:30:10;;;;;;;14.32;9.10;;;21.80;92.50;;;;;;5064793;28;20028;-58
2023/05/22 08:32:36;;;;;;;13.18;10.57;;;21.90;92.20;;;;;;5070467;28;20017;-50
2023/05/22 08:35:02;;;;;;;11.95;10.57;;;21.90;91.20;;;;;;5062237;28;20040;-51
2023/05/22 08:37:27;;;;;;;14.90;11.07;;;22.00;91.40;;;;;;5054447;28;20029;-54
2023/05/22 08:39:53;;;;;;;11.93;10.65;;;22.10;91.00;;;;;;5061547;28;20021;-54
2023/05/22 08:42:19;;;;;;;12.50;9.67;;;22.20;91.20;;;;;;5054355;28;20109;-50
2023/05/22 08:44:47;;;;;;;12.35;10.55;;;22.30;90.80;;;;;;5063013;28;20078;-53
2023/05/22 08:47:14;;;;;;;14.13;8.90;;;22.40;88.40;;;;;;5053778;28;20033;-52
2023/05/22 08:49:40;;;;;;;10.55;8.63;;;22.40;86.40;;;;;;5063684;28;20517;-53
2023/05/22 08:52:15;;;;;;;11.35;9.98;;;22.40;79.20;;;;;;5052762;28;20104;-49
2023/05/22 08:54:44;;;;;;;12.20;9.35;;;22.40;82.70;;;;;;5065069;28;20056;-51
2023/05/22 08:57:10;;;;;;;12.68;9.95;;;22.40;84.60;;;;;;5053209;28;20100;-54
2023/05/22 08:59:38;;;;;;;12.55;9.98;;;22.50;85.80;;;;;;5062168;28;20029;-51
2023/05/22 09:02:05;;;;;;;14.35;10.27;;;22.60;88.90;;;;;;5072196;28;20031;-49
2023/05/22 09:04:30;;;;;;;17.63;9.50;;;22.70;86.00;;;;;;5064378;28;20032;-51
2023/05/22 09:06:56;;;;;;;12.97;9.77;;;22.70;85.60;;;;;;5051794;28;20479;-53
2023/05/22 09:09:22;;;;;;;12.50;9.50;;;22.80;84.70;;;;;;5064144;28;20094;-54
2023/05/22 09:11:49;;;;;;;16.27;9.03;;;22.80;87.60;;;;;;5052856;28;20029;-52
2023/05/22 09:14:15;;;;;;;11.20;9.93;;;22.90;86.90;;;;;;5064217;28;20032;-53
2023/05/22 09:16:48;;;;;;;14.57;9.63;;;22.90;83.60;;;;;;5052779;28;20403;-55
2023/05/22 09:19:14;;;;;;;10.60;9.52;;;23.00;81.30;;;;;;5063783;28;20024;-54
2023/05/22 09:21:40;;;;;;;14.33;10.00;;;23.00;80.70;;;;;;5052823;28;20033;-51
2023/05/22 09:24:09;;;;;;;14.40;9.73;;;23.00;79.20;;;;;;5063822;28;20436;-53
2023/05/22 09:26:38;;;;;;;13.27;8.07;;;23.10;77.50;;;;;;5052667;28;20079;-50
2023/05/22 09:29:07;;;;;;;10.95;9.52;;;23.20;76.00;;;;;;5057400;28;20025;-55
2023/05/22 09:31:43;;;;;;;15.57;9.52;;;23.20;75.40;;;;;;5072409;28;20091;-50
2023/05/22 09:34:12;;;;;;;12.45;9.65;;;23.20;76.00;;;;;;5065285;28;20497;-51
2023/05/22 09:36:38;;;;;;;13.35;8.80;;;23.30;74.80;;;;;;5052582;28;20036;-53
2023/05/22 09:39:04;;;;;;;11.15;7.88;;;23.40;76.20;;;;;;5063267;28;20028;-54
2023/05/22 09:41:34;;;;;;;13.57;8.63;;;23.50;74.70;;;;;;5052421;28;20028;-55
2023/05/22 09:44:00;;;;;;;11.82;8.80;;;23.50;72.70;;;;;;5062865;28;20024;-50
2023/05/22 09:46:25;;;;;;;13.07;9.03;;;23.50;73.90;;;;;;5052656;28;20036;-52
2023/05/22 09:48:52;;;;;;;13.18;9.38;;;23.60;75.80;;;;;;5061635;28;20266;-47
2023/05/22 09:51:22;;;;;;;10.15;8.60;;;23.70;76.40;;;;;;5053555;28;20494;-48
2023/05/22 09:53:50;;;;;;;11.43;8.52;;;23.70;72.70;;;;;;5061243;28;20032;-50
2023/05/22 09:56:18;;;;;;;10.45;8.00;;;23.80;75.70;;;;;;5053791;28;20027;-52
2023/05/22 09:58:46;;;;;;;13.48;9.65;;;23.90;73.20;;;;;;5056662;28;20519;-50
2023/05/22 10:01:14;;;;;;;10.85;8.73;;;24.00;71.60;;;;;;5069766;28;20120;-51
2023/05/22 10:03:41;;;;;;;8.40;7.50;;;24.00;70.60;;;;;;5065215;28;20052;-51
2023/05/22 10:06:11;;;;;;;12.52;8.27;;;24.10;72.70;;;;;;5054788;28;20031;-53
2023/05/22 10:08:42;;;;;;;10.07;7.95;;;24.20;68.70;;;;;;5059341;28;20078;-55
2023/05/22 10:11:10;;;;;;;9.75;8.38;;;24.30;68.00;;;;;;5054588;28;20033;-52
2023/05/22 10:13:36;;;;;;;10.80;9.00;;;24.30;68.10;;;;;;5059187;28;20050;-52
2023/05/22 10:16:03;;;;;;;12.30;8.40;;;24.20;67.70;;;;;;5055196;28;20036;-55
2023/05/22 10:18:29;;;;;;;10.68;8.15;;;24.20;69.00;;;;;;5064643;28;20454;-51
2023/05/22 10:20:59;;;;;;;11.35;7.55;;;24.20;68.60;;;;;;5059669;28;20078;-50
2023/05/22 10:23:27;;;;;;;11.20;8.75;;;24.30;68.90;;;;;;5062316;28;20414;-50
2023/05/22 10:25:53;;;;;;;10.73;8.40;;;24.40;67.20;;;;;;5066013;28;20025;-49
2023/05/22 10:28:33;;;;;;;8.80;7.90;;;24.50;67.50;;;;;;5063798;28;20033;-52
2023/05/22 10:31:28;;;;;;;8.20;7.30;;;24.60;68.10;;;;;;5067360;28;20486;-54
2023/05/22 10:33:59;;;;;;;10.85;8.57;;;24.60;69.00;;;;;;5051554;28;20033;-53
2023/05/22 10:36:45;;;;;;;9.75;8.05;;;24.70;66.80;;;;;;5056546;28;20033;-55
2023/05/22 10:39:29;;;;;;;11.95;9.07;;;24.80;66.10;;;;;;5062456;28;20037;-55
2023/05/22 10:41:55;;;;;;;10.95;8.77;;;24.70;65.50;;;;;;5051316;28;20036;-53
2023/05/22 10:44:21;;;;;;;11.43;7.47;;;24.80;66.20;;;;;;5062548;28;20024;-53
2023/05/22 10:46:49;;;;;;;10.05;7.80;;;24.90;66.60;;;;;;5065698;28;20052;-55
2023/05/22 10:49:22;;;;;;;11.93;8.23;;;24.90;65.90;;;;;;5053753;28;20033;-57
2023/05/22 10:51:48;;;;;;;11.32;8.05;;;25.00;66.80;;;;;;5051623;28;20418;-55
2023/05/22 10:54:14;;;;;;;9.98;7.82;;;25.00;66.00;;;;;;5061422;28;20025;-55
2023/05/22 10:56:41;;;;;;;8.57;7.63;;;25.10;65.80;;;;;;5068423;28;20036;-54
2023/05/22 10:59:06;;;;;;;13.77;7.95;;;25.10;65.10;;;;;;5058143;28;20120;-54
2023/05/22 11:01:36;;;;;;;8.63;7.73;;;25.20;64.60;;;;;;5059362;28;20092;-54
2023/05/22 11:04:07;;;;;;;9.52;7.57;;;25.40;64.00;;;;;;5060235;28;20074;-56
2023/05/22 11:06:44;;;;;;;11.48;9.05;;;25.40;63.60;;;;;;5052487;28;20033;-56
2023/05/22 11:09:29;;;;;;;9.20;7.65;;;25.40;63.20;;;;;;5063980;28;20031;-55
2023/05/22 11:12:15;;;;;;;9.30;7.28;;;25.50;62.60;;;;;;5051353;28;20402;-53
2023/05/22 11:14:42;;;;;;;11.07;6.60;;;25.60;64.30;;;;;;5054988;28;20021;-55
2023/05/22 11:17:10;;;;;;;10.43;7.68;;;25.60;62.70;;;;;;5069242;28;20135;-55
2023/05/22 11:19:38;;;;;;;13.20;7.88;;;25.70;62.30;;;;;;5065994;28;20044;-55
2023/05/22 11:22:04;;;;;;;9.73;8.15;;;25.70;62.90;;;;;;5055485;28;20021;-57
2023/05/22 11:24:33;;;;;;;11.57;7.83;;;25.70;62.50;;;;;;5063571;28;20036;-54
2023/05/22 11:27:06;;;;;;;9.93;7.30;;;25.90;62.40;;;;;;5060156;28;20390;-57
2023/05/22 11:29:32;;;;;;;18.25;8.27;;;25.90;61.00;;;;;;5063285;28;20089;-53
2023/05/22 11:31:59;;;;;;;10.38;7.30;;;25.90;60.80;;;;;;5063215;28;20043;-57
2023/05/22 11:34:25;;;;;;;10.45;7.22;;;25.90;60.00;;;;;;5063219;28;20024;-57
2023/05/22 11:37:00;;;;;;;8.20;7.27;;;25.90;60.70;;;;;;5074798;28;20020;-50
2023/05/22 11:39:26;;;;;;;10.05;7.80;;;26.10;60.40;;;;;;5064190;28;20083;-51
2023/05/22 11:41:52;;;;;;;12.13;6.83;;;26.30;61.50;;;;;;5070809;28;20032;-51
2023/05/22 11:44:18;;;;;;;9.37;7.77;;;26.40;60.90;;;;;;5066046;28;20025;-48
2023/05/22 11:46:44;;;;;;;21.27;7.63;;;26.40;58.90;;;;;;5068210;28;20403;-52
2023/05/22 11:49:13;;;;;;;12.43;8.02;;;26.30;58.80;;;;;;5060966;28;20475;-52
2023/05/22 11:51:39;;;;;;;8.05;6.70;;;26.30;58.60;;;;;;5073611;28;20020;-50
2023/05/22 11:54:09;;;;;;;11.93;7.90;;;26.40;58.80;;;;;;5066824;28;20060;-49
2023/05/22 11:56:35;;;;;;;8.65;7.20;;;26.50;59.00;;;;;;5054498;28;20021;-56
2023/05/22 11:59:01;;;;;;;10.17;7.93;;;26.60;58.20;;;;;;5057795;28;20024;-52
2023/05/22 12:01:26;;;;;;;9.07;7.45;;;26.70;58.30;;;;;;5062481;28;20392;-54
2023/05/22 12:03:53;;;;;;;8.20;7.33;;;26.90;59.00;;;;;;5061375;28;20036;-51
2023/05/22 12:06:19;;;;;;;;;;;27.00;59.40;;;;;;5055810;28;20024;-54
2023/05/22 12:08:45;;;;;;;9.57;7.45;;;27.10;57.50;;;;;;5062717;28;19908;-53
2023/05/22 12:11:11;;;;;;;8.85;6.97;;;27.20;60.10;;;;;;5056453;28;20395;-54
2023/05/22 12:13:37;;;;;;;11.50;7.65;;;27.40;59.40;;;;;;5061643;28;20078;-49
2023/05/22 12:16:17;;;;;;;10.93;7.47;;;27.60;58.50;;;;;;5065470;28;20025;-52
2023/05/22 12:18:43;;;;;;;9.52;7.53;;;27.90;57.90;;;;;;5060842;28;20027;-53
2023/05/22 12:21:10;;;;;;;11.60;8.10;;;28.00;57.40;;;;;;5058232;28;20103;-49
2023/05/22 12:23:46;;;;;;;9.07;6.97;;;28.00;57.60;;;;;;5067413;28;20052;-49
2023/05/22 12:26:11;;;;;;;10.50;7.63;;;28.00;58.80;;;;;;5063757;28;20502;-48
2023/05/22 12:28:38;;;;;;;9.20;6.93;;;27.90;57.00;;;;;;5066773;28;20031;-54
2023/05/22 12:31:03;;;;;;;8.57;7.45;;;27.80;57.10;;;;;;5065003;28;20045;-48
2023/05/22 12:33:30;;;;;;;8.40;7.53;;;27.70;56.60;;;;;;5067090;28;20082;-55
2023/05/22 12:35:57;;;;;;;10.13;7.65;;;27.90;56.70;;;;;;5064700;28;20040;-49